createdAt,value
2018-05-01T00:01:48.166Z,99.90
2018-05-01T00:04:15.926Z,99.90
2018-05-01T00:06:43.745Z,99.90
2018-05-01T00:09:11.493Z,99.90
2018-05-01T00:11:39.284Z,99.90
2018-05-01T00:14:07.884Z,99.90
2018-05-01T00:16:35.655Z,99.90
2018-05-01T00:19:03.415Z,99.90
2018-05-01T00:21:31.227Z,99.90
2018-05-01T00:23:58.986Z,99.90
2018-05-01T00:26:26.729Z,99.90
2018-05-01T00:28:55.301Z,99.90
2018-05-01T00:31:23.032Z,99.90
2018-05-01T00:33:50.777Z,99.90
2018-05-01T00:36:19.359Z,99.90
2018-05-01T00:38:47.884Z,99.90
2018-05-01T00:41:15.665Z,99.90
2018-05-01T00:43:43.496Z,99.90
2018-05-01T00:46:11.231Z,99.90
2018-05-01T00:48:39.059Z,99.90
2018-05-01T00:51:06.862Z,99.90
2018-05-01T00:53:34.630Z,99.90
2018-05-01T00:56:02.379Z,99.90
2018-05-01T00:58:30.956Z,99.90
2018-05-01T01:00:59.479Z,97.80
2018-05-01T01:03:27.208Z,97.80
2018-05-01T01:05:55.008Z,99.90
2018-05-01T01:08:22.771Z,99.90
2018-05-01T01:10:50.507Z,99.90
2018-05-01T01:13:18.335Z,99.90
2018-05-01T01:15:46.109Z,99.90
2018-05-01T01:18:14.704Z,99.90
2018-05-01T01:20:42.504Z,99.90
2018-05-01T01:23:10.246Z,99.90
2018-05-01T01:25:37.995Z,99.90
2018-05-01T01:28:05.796Z,99.90
2018-05-01T01:30:33.580Z,99.90
2018-05-01T01:33:02.140Z,99.90
2018-05-01T01:35:29.498Z,99.90
2018-05-01T01:37:56.816Z,99.30
2018-05-01T01:40:24.076Z,98.80
2018-05-01T01:42:51.424Z,99.90
2018-05-01T01:45:18.825Z,99.90
2018-05-01T01:47:46.940Z,99.90
2018-05-01T01:50:14.290Z,99.90
2018-05-01T01:52:41.618Z,99.90
2018-05-01T01:55:09.633Z,99.90
2018-05-01T01:57:36.933Z,99.90
2018-05-01T02:00:05.014Z,99.90
2018-05-01T02:02:32.295Z,99.90
2018-05-01T02:04:59.620Z,99.90
2018-05-01T02:07:27.784Z,97.60
2018-05-01T02:09:55.079Z,96.40
2018-05-01T02:12:22.474Z,96.10
2018-05-01T02:14:50.506Z,94.90
2018-05-01T02:17:17.765Z,95.00
2018-05-01T02:19:45.120Z,94.70
2018-05-01T02:22:13.187Z,98.30
2018-05-01T02:24:42.268Z,98.30
2018-05-01T02:27:11.658Z,95.60
2018-05-01T02:29:38.933Z,96.50
2018-05-01T02:32:06.201Z,97.60
2018-05-01T02:34:33.524Z,98.30
2018-05-01T02:37:00.803Z,97.40
2018-05-01T02:39:28.086Z,98.50
2018-05-01T02:41:55.450Z,99.90
2018-05-01T02:44:23.500Z,95.80
2018-05-01T02:46:50.786Z,95.50
2018-05-01T02:49:18.078Z,97.40
2018-05-01T02:51:46.114Z,91.00
2018-05-01T02:54:13.384Z,91.00
2018-05-01T02:56:40.691Z,90.40
2018-05-01T02:59:07.980Z,84.70
2018-05-01T03:01:35.278Z,81.20
2018-05-01T03:04:02.597Z,84.70
2018-05-01T03:06:29.850Z,86.10
2018-05-01T03:08:57.885Z,90.30
2018-05-01T03:11:25.201Z,90.30
2018-05-01T03:13:52.657Z,93.70
2018-05-01T03:16:19.920Z,96.90
2018-05-01T03:18:47.265Z,97.90
2018-05-01T03:21:14.552Z,99.30
2018-05-01T03:23:41.810Z,99.30
2018-05-01T03:26:09.135Z,99.90
2018-05-01T03:28:36.423Z,99.90
2018-05-01T03:31:03.675Z,99.90
2018-05-01T03:33:30.990Z,99.90
2018-05-01T03:35:58.273Z,99.90
2018-05-01T03:38:25.528Z,99.90
2018-05-01T03:40:52.848Z,99.90
2018-05-01T03:43:20.860Z,99.90
2018-05-01T03:45:48.119Z,99.90
2018-05-01T03:48:16.182Z,99.90
2018-05-01T03:50:44.203Z,99.90
2018-05-01T03:53:11.466Z,99.90
2018-05-01T03:55:38.772Z,99.90
2018-05-01T03:58:06.030Z,99.90
2018-05-01T04:00:33.324Z,99.90
2018-05-01T04:03:00.652Z,99.90
2018-05-01T04:05:27.910Z,99.90
2018-05-01T04:07:55.191Z,99.90
2018-05-01T04:10:22.506Z,99.90
2018-05-01T04:12:49.780Z,99.90
2018-05-01T04:15:17.052Z,99.90
2018-05-01T04:17:45.161Z,99.90
2018-05-01T04:20:12.427Z,99.90
2018-05-01T04:22:39.683Z,99.90
2018-05-01T04:25:07.021Z,99.90
2018-05-01T04:27:34.311Z,98.00
2018-05-01T04:30:02.347Z,93.70
2018-05-01T04:32:29.648Z,93.80
2018-05-01T04:34:57.694Z,90.40
2018-05-01T04:37:24.962Z,90.30
2018-05-01T04:39:53.055Z,87.50
2018-05-01T04:42:20.337Z,87.50
2018-05-01T04:44:47.641Z,89.50
2018-05-01T04:47:15.711Z,80.20
2018-05-01T04:49:43.808Z,77.40
2018-05-01T04:52:11.099Z,77.50
2018-05-01T04:54:38.480Z,82.20
2018-05-01T04:57:06.545Z,99.90
2018-05-01T04:59:34.593Z,99.90
2018-05-01T05:02:01.912Z,99.90
2018-05-01T05:04:29.172Z,99.90
2018-05-01T05:06:56.440Z,99.90
2018-05-01T05:09:23.821Z,99.90
2018-05-01T05:11:51.067Z,99.90
2018-05-01T05:14:19.132Z,99.90
2018-05-01T05:16:47.244Z,99.90
2018-05-01T05:19:14.527Z,99.90
2018-05-01T05:21:41.771Z,99.90
2018-05-01T05:24:09.077Z,99.90
2018-05-01T05:26:36.364Z,99.90
2018-05-01T05:29:04.425Z,99.90
2018-05-01T05:31:31.738Z,99.90
2018-05-01T05:33:59.784Z,99.90
2018-05-01T05:36:27.030Z,99.90
2018-05-01T05:38:54.351Z,99.90
2018-05-01T05:41:21.635Z,99.90
2018-05-01T05:43:48.899Z,99.90
2018-05-01T05:46:16.977Z,99.90
2018-05-01T05:48:45.120Z,99.90
2018-05-01T05:51:12.352Z,99.90
2018-05-01T05:53:39.662Z,99.90
2018-05-01T05:56:06.913Z,99.90
2018-05-01T05:58:34.191Z,99.90
2018-05-01T06:01:01.607Z,99.90
2018-05-01T06:03:29.630Z,99.90
2018-05-01T06:05:56.902Z,99.90
2018-05-01T06:08:24.195Z,99.10
2018-05-01T06:10:51.485Z,96.10
2018-05-01T06:13:19.513Z,93.60
2018-05-01T06:15:46.808Z,94.00
2018-05-01T06:18:14.059Z,93.20
2018-05-01T06:20:41.307Z,85.60
2018-05-01T06:23:08.629Z,77.00
2018-05-01T06:25:35.899Z,76.60
2018-05-01T06:28:03.191Z,59.90
2018-05-01T06:30:30.532Z,37.40
2018-05-01T06:32:58.564Z,27.20
2018-05-01T06:35:26.579Z,29.20
2018-05-01T06:37:54.667Z,28.80
2018-05-01T06:40:21.944Z,29.00
2018-05-01T06:42:49.222Z,28.80
2018-05-01T06:45:16.573Z,25.10
2018-05-01T06:47:43.942Z,28.60
2018-05-01T06:50:11.997Z,23.70
2018-05-01T06:52:39.317Z,23.70
2018-05-01T06:55:06.588Z,25.80
2018-05-01T06:57:33.857Z,28.60
2018-05-01T07:00:01.238Z,28.30
2018-05-01T07:02:28.516Z,28.30
2018-05-01T07:04:55.770Z,29.20
2018-05-01T07:07:23.122Z,32.80
2018-05-01T07:09:50.439Z,32.10
2018-05-01T07:12:17.708Z,36.60
2018-05-01T07:14:45.076Z,47.70
2018-05-01T07:17:13.109Z,59.20
2018-05-01T07:19:40.361Z,59.20
2018-05-01T07:22:07.680Z,65.00
2018-05-01T07:24:35.002Z,70.70
2018-05-01T07:27:02.307Z,70.20
2018-05-01T07:29:30.385Z,76.80
2018-05-01T07:31:57.634Z,76.80
2018-05-01T07:34:24.879Z,80.70
2018-05-01T07:36:52.950Z,82.10
2018-05-01T07:39:20.198Z,82.00
2018-05-01T07:41:47.477Z,83.00
2018-05-01T07:44:14.804Z,74.80
2018-05-01T07:46:42.042Z,70.70
2018-05-01T07:49:10.171Z,67.80
2018-05-01T07:51:37.463Z,67.70
2018-05-01T07:54:05.542Z,65.00
2018-05-01T07:56:32.787Z,65.20
2018-05-01T07:59:00.115Z,63.00
2018-05-01T08:01:27.388Z,59.10
2018-05-01T08:03:54.648Z,63.00
2018-05-01T08:06:21.986Z,60.80
2018-05-01T08:08:49.247Z,64.30
2018-05-01T08:11:17.262Z,56.10
2018-05-01T08:13:44.573Z,56.10
2018-05-01T08:16:11.833Z,52.00
2018-05-01T08:18:39.130Z,50.70
2018-05-01T08:21:06.444Z,55.00
2018-05-01T08:23:33.944Z,53.10
2018-05-01T08:26:01.505Z,51.30
2018-05-01T08:28:29.220Z,45.40
2018-05-01T08:30:57.568Z,33.40
2018-05-01T08:33:25.212Z,33.00
2018-05-01T08:35:52.937Z,30.60
2018-05-01T08:38:20.725Z,27.80
2018-05-01T08:40:48.350Z,23.90
2018-05-01T08:43:17.252Z,21.40
2018-05-01T08:45:45.934Z,23.70
2018-05-01T08:48:13.563Z,23.70
2018-05-01T08:50:42.105Z,25.90
2018-05-01T08:53:10.666Z,25.80
2018-05-01T08:55:39.131Z,28.70
2018-05-01T08:58:06.911Z,28.60
2018-05-01T09:00:35.084Z,29.20
2018-05-01T09:03:02.762Z,31.50
2018-05-01T09:05:31.919Z,29.00
2018-05-01T09:07:59.519Z,27.90
2018-05-01T09:10:27.103Z,29.10
2018-05-01T09:12:54.798Z,28.50
2018-05-01T09:15:22.362Z,27.90
2018-05-01T09:17:49.861Z,25.10
2018-05-01T09:20:17.149Z,26.10
2018-05-01T09:22:44.403Z,26.00
2018-05-01T09:25:11.698Z,27.90
2018-05-01T09:27:39.770Z,27.70
2018-05-01T09:30:07.832Z,31.00
2018-05-01T09:32:35.120Z,31.10
2018-05-01T09:35:02.704Z,29.50
2018-05-01T09:37:30.057Z,30.20
2018-05-01T09:39:57.323Z,30.30
2018-05-01T09:42:24.616Z,29.30
2018-05-01T09:44:51.860Z,30.00
2018-05-01T09:47:19.095Z,29.70
2018-05-01T09:49:47.160Z,28.80
2018-05-01T09:52:15.691Z,29.60
2018-05-01T09:54:43.472Z,29.10
2018-05-01T09:57:11.253Z,29.20
2018-05-01T09:59:39.017Z,29.00
2018-05-01T10:02:07.511Z,26.60
2018-05-01T10:04:36.092Z,26.20
2018-05-01T10:07:04.616Z,27.20
2018-05-01T10:09:32.339Z,27.20
2018-05-01T10:12:00.442Z,29.40
2018-05-01T10:14:28.183Z,28.30
2018-05-01T10:16:55.939Z,26.90
2018-05-01T10:19:23.733Z,27.70
2018-05-01T10:21:52.233Z,27.90
2018-05-01T10:24:19.972Z,27.90
2018-05-01T10:26:47.760Z,27.70
2018-05-01T10:29:15.497Z,25.70
2018-05-01T10:31:43.412Z,24.40
2018-05-01T10:34:11.957Z,26.10
2018-05-01T10:36:39.679Z,26.10
2018-05-01T10:39:07.427Z,25.30
2018-05-01T10:41:35.219Z,28.10
2018-05-01T10:44:03.017Z,27.50
2018-05-01T10:46:30.753Z,27.10
2018-05-01T10:48:58.589Z,27.10
2018-05-01T10:51:26.344Z,25.80
2018-05-01T10:53:54.074Z,25.50
2018-05-01T10:56:21.855Z,26.80
2018-05-01T10:58:49.605Z,25.70
2018-05-01T11:01:18.100Z,24.80
2018-05-01T11:03:45.959Z,24.80
2018-05-01T11:06:14.453Z,23.50
2018-05-01T11:08:42.287Z,23.60
2018-05-01T11:11:10.047Z,25.60
2018-05-01T11:13:38.557Z,23.50
2018-05-01T11:16:06.288Z,23.10
2018-05-01T11:18:34.859Z,22.30
2018-05-01T11:21:02.618Z,22.30
2018-05-01T11:23:30.339Z,23.90
2018-05-01T11:25:58.193Z,25.00
2018-05-01T11:28:26.756Z,22.90
2018-05-01T11:30:54.461Z,22.90
2018-05-01T11:33:22.238Z,22.10
2018-05-01T11:35:49.960Z,22.90
2018-05-01T11:38:17.689Z,23.10
2018-05-01T11:40:45.471Z,23.30
2018-05-01T11:43:13.208Z,23.20
2018-05-01T11:45:41.694Z,24.20
2018-05-01T11:48:10.243Z,24.50
2018-05-01T11:50:37.979Z,24.40
2018-05-01T11:53:05.712Z,25.10
2018-05-01T11:55:33.487Z,25.50
2018-05-01T11:58:01.225Z,26.30
2018-05-01T12:00:28.960Z,26.60
2018-05-01T12:02:56.752Z,26.60
2018-05-01T12:05:24.487Z,24.90
2018-05-01T12:07:52.218Z,24.80
2018-05-01T12:10:20.024Z,25.60
2018-05-01T12:12:48.538Z,26.60
2018-05-01T12:15:16.259Z,26.60
2018-05-01T12:17:44.814Z,26.20
2018-05-01T12:20:12.546Z,26.70
2018-05-01T12:22:40.287Z,24.70
2018-05-01T12:25:08.077Z,25.50
2018-05-01T12:27:35.818Z,25.50
2018-05-01T12:30:03.575Z,24.60
2018-05-01T12:32:31.374Z,23.80
2018-05-01T12:34:59.106Z,23.70
2018-05-01T12:37:26.828Z,23.20
2018-05-01T12:39:54.628Z,24.60
2018-05-01T12:42:22.476Z,24.70
2018-05-01T12:44:50.203Z,25.20
2018-05-01T12:47:17.979Z,24.30
2018-05-01T12:49:46.475Z,24.50
2018-05-01T12:52:14.966Z,24.30
2018-05-01T12:54:42.769Z,24.30
2018-05-01T12:57:10.537Z,24.30
2018-05-01T12:59:38.271Z,25.20
2018-05-01T13:02:06.069Z,24.60
2018-05-01T13:04:33.807Z,24.30
2018-05-01T13:07:01.538Z,25.80
2018-05-01T13:09:29.336Z,27.40
2018-05-01T13:11:57.073Z,25.30
2018-05-01T13:14:24.802Z,25.50
2018-05-01T13:16:53.384Z,26.00
2018-05-01T13:19:21.906Z,25.60
2018-05-01T13:21:49.656Z,25.50
2018-05-01T13:24:17.450Z,25.40
2018-05-01T13:26:45.203Z,25.60
2018-05-01T13:29:12.968Z,25.00
2018-05-01T13:31:40.829Z,25.80
2018-05-01T13:34:08.573Z,23.90
2018-05-01T13:36:36.316Z,24.30
2018-05-01T13:39:04.155Z,23.20
2018-05-01T13:41:32.666Z,24.80
2018-05-01T13:44:00.422Z,24.80
2018-05-01T13:46:28.303Z,25.10
2018-05-01T13:48:56.122Z,25.10
2018-05-01T13:51:23.851Z,24.90
2018-05-01T13:53:51.643Z,25.70
2018-05-01T13:56:20.154Z,26.90
2018-05-01T13:58:47.898Z,26.30
2018-05-01T14:01:15.705Z,25.80
2018-05-01T14:03:43.447Z,24.60
2018-05-01T14:06:11.190Z,25.80
2018-05-01T14:08:38.988Z,25.80
2018-05-01T14:11:06.787Z,25.80
2018-05-01T14:13:34.511Z,24.60
2018-05-01T14:16:02.352Z,25.20
2018-05-01T14:18:30.096Z,25.00
2018-05-01T14:20:58.591Z,26.60
2018-05-01T14:23:26.374Z,26.60
2018-05-01T14:25:54.113Z,26.10
2018-05-01T14:28:21.843Z,26.40
2018-05-01T14:30:49.652Z,27.20
2018-05-01T14:33:17.377Z,26.40
2018-05-01T14:35:45.904Z,26.70
2018-05-01T14:38:13.691Z,26.60
2018-05-01T14:40:41.436Z,27.30
2018-05-01T14:43:09.224Z,27.20
2018-05-01T14:45:37.770Z,27.20
2018-05-01T14:48:05.532Z,27.20
2018-05-01T14:50:33.274Z,27.80
2018-05-01T14:53:01.066Z,27.20
2018-05-01T14:55:28.876Z,27.30
2018-05-01T14:57:57.394Z,27.70
2018-05-01T15:00:25.125Z,27.60
2018-05-01T15:03:04.883Z,27.40
2018-05-01T15:05:32.610Z,26.90
2018-05-01T15:08:01.159Z,26.50
2018-05-01T15:10:28.925Z,26.50
2018-05-01T15:12:56.694Z,26.60
2018-05-01T15:15:24.442Z,27.70
2018-05-01T15:17:52.228Z,27.00
2018-05-01T15:20:20.741Z,27.70
2018-05-01T15:22:48.490Z,27.60
2018-05-01T15:25:17.040Z,28.90
2018-05-01T15:27:45.578Z,29.00
2018-05-01T15:30:13.423Z,29.00
2018-05-01T15:32:41.128Z,28.50
2018-05-01T15:35:08.877Z,28.30
2018-05-01T15:37:36.688Z,29.00
2018-05-01T15:40:05.212Z,28.50
2018-05-01T15:42:32.973Z,28.40
2018-05-01T15:45:01.508Z,28.60
2018-05-01T15:47:30.066Z,28.90
2018-05-01T15:49:57.812Z,28.90
2018-05-01T15:52:25.555Z,28.40
2018-05-01T15:54:53.356Z,28.60
2018-05-01T15:57:21.100Z,28.70
2018-05-01T15:59:48.884Z,29.10
2018-05-01T16:02:16.645Z,28.80
2018-05-01T16:04:44.415Z,28.90
2018-05-01T16:07:12.164Z,29.40
2018-05-01T16:09:39.967Z,29.20
2018-05-01T16:12:07.692Z,29.10
2018-05-01T16:14:35.416Z,28.70
2018-05-01T16:17:03.192Z,28.70
2018-05-01T16:19:30.952Z,28.80
2018-05-01T16:21:58.726Z,28.90
2018-05-01T16:24:26.485Z,29.30
2018-05-01T16:26:54.261Z,29.10
2018-05-01T16:29:22.007Z,29.70
2018-05-01T16:31:49.796Z,30.00
2018-05-01T16:34:18.287Z,30.20
2018-05-01T16:36:46.800Z,30.00
2018-05-01T16:39:14.559Z,30.60
2018-05-01T16:41:42.296Z,29.70
2018-05-01T16:44:10.061Z,30.30
2018-05-01T16:46:37.856Z,30.60
2018-05-01T16:49:05.657Z,31.70
2018-05-01T16:51:33.424Z,30.90
2018-05-01T16:54:01.166Z,31.40
2018-05-01T16:56:29.247Z,31.20
2018-05-01T16:58:57.033Z,32.00
2018-05-01T17:01:25.580Z,32.60
2018-05-01T17:03:53.351Z,32.60
2018-05-01T17:06:21.121Z,32.90
2018-05-01T17:08:48.855Z,33.90
2018-05-01T17:11:16.664Z,35.00
2018-05-01T17:13:45.163Z,35.20
2018-05-01T17:16:12.920Z,35.20
2018-05-01T17:18:40.692Z,35.70
2018-05-01T17:21:08.440Z,35.80
2018-05-01T17:23:36.206Z,36.70
2018-05-01T17:26:03.964Z,37.30
2018-05-01T17:28:31.766Z,37.60
2018-05-01T17:30:59.511Z,38.40
2018-05-01T17:33:27.265Z,38.50
2018-05-01T17:35:55.044Z,39.10
2018-05-01T17:38:22.816Z,40.10
2018-05-01T17:40:50.592Z,41.50
2018-05-01T17:43:18.367Z,42.10
2018-05-01T17:45:46.903Z,43.00
2018-05-01T17:48:14.640Z,42.90
2018-05-01T17:50:42.440Z,43.80
2018-05-01T17:53:10.218Z,44.50
2018-05-01T17:55:37.968Z,44.50
2018-05-01T17:58:05.810Z,45.50
2018-05-01T18:00:33.581Z,45.80
2018-05-01T18:03:01.362Z,46.10
2018-05-01T18:05:29.118Z,46.70
2018-05-01T18:07:56.920Z,46.70
2018-05-01T18:10:25.430Z,45.40
2018-05-01T18:12:53.228Z,45.40
2018-05-01T18:15:20.993Z,46.60
2018-05-01T18:17:48.767Z,47.40
2018-05-01T18:20:17.310Z,49.80
2018-05-01T18:22:45.209Z,49.80
2018-05-01T18:25:13.009Z,50.70
2018-05-01T18:27:40.800Z,51.90
2018-05-01T18:30:08.582Z,53.00
2018-05-01T18:32:36.327Z,54.70
2018-05-01T18:35:04.109Z,55.50
2018-05-01T18:37:31.883Z,56.50
2018-05-01T18:39:59.625Z,57.90
2018-05-01T18:42:27.440Z,58.90
2018-05-01T18:44:55.196Z,57.80
2018-05-01T18:47:23.737Z,56.80
2018-05-01T18:49:52.227Z,56.90
2018-05-01T18:52:20.833Z,57.50
2018-05-01T18:54:49.344Z,58.00
2018-05-01T18:57:17.112Z,58.00
2018-05-01T18:59:45.674Z,58.80
2018-05-01T19:02:13.433Z,58.80
2018-05-01T19:04:41.345Z,60.40
2018-05-01T19:07:09.036Z,63.10
2018-05-01T19:09:37.687Z,65.00
2018-05-01T19:12:05.533Z,65.00
2018-05-01T19:14:33.708Z,66.00
2018-05-01T19:17:02.327Z,67.80
2018-05-01T19:19:30.128Z,67.80
2018-05-01T19:21:58.042Z,69.20
2018-05-01T19:24:25.857Z,70.80
2018-05-01T19:26:53.648Z,72.30
2018-05-01T19:29:22.185Z,73.60
2018-05-01T19:31:50.200Z,73.60
2018-05-01T19:34:18.033Z,72.80
2018-05-01T19:36:46.557Z,77.00
2018-05-01T19:39:14.329Z,76.20
2018-05-01T19:41:42.073Z,75.90
2018-05-01T19:44:09.924Z,77.60
2018-05-01T19:46:38.805Z,81.40
2018-05-01T19:49:06.813Z,83.50
2018-05-01T19:51:34.544Z,84.70
2018-05-01T19:54:02.340Z,86.60
2018-05-01T19:56:30.958Z,89.50
2018-05-01T19:58:58.862Z,89.10
2018-05-01T20:01:26.687Z,90.30
2018-05-01T20:03:54.449Z,90.60
2018-05-01T20:06:22.269Z,91.80
2018-05-01T20:08:50.846Z,91.90
2018-05-01T20:11:18.721Z,92.20
2018-05-01T20:13:46.541Z,91.20
2018-05-01T20:16:14.358Z,91.30
2018-05-01T20:18:42.163Z,91.40
2018-05-01T20:21:09.917Z,90.60
2018-05-01T20:23:37.712Z,89.70
2018-05-01T20:26:05.475Z,88.10
2018-05-01T20:28:33.547Z,88.20
2018-05-01T20:31:02.127Z,89.00
2018-05-01T20:33:29.975Z,89.00
2018-05-01T20:35:57.773Z,89.90
2018-05-01T20:38:25.591Z,89.80
2018-05-01T20:40:53.346Z,90.20
2018-05-01T20:43:22.711Z,91.50
2018-05-01T20:45:51.236Z,91.10
2018-05-01T20:48:19.021Z,91.10
2018-05-01T20:50:47.099Z,93.00
2018-05-01T20:53:14.861Z,94.30
2018-05-01T20:55:42.603Z,94.30
2018-05-01T20:58:10.380Z,95.10
2018-05-01T21:00:38.272Z,96.00
2018-05-01T21:03:06.821Z,96.70
2018-05-01T21:05:34.572Z,96.60
2018-05-01T21:08:02.334Z,96.60
2018-05-01T21:10:30.072Z,96.00
2018-05-01T21:12:57.869Z,93.60
2018-05-01T21:15:25.607Z,93.10
2018-05-01T21:17:53.350Z,91.20
2018-05-01T21:20:21.805Z,89.80
2018-05-01T21:22:49.540Z,85.20
2018-05-01T21:25:18.092Z,76.00
2018-05-01T21:27:45.886Z,76.10
2018-05-01T21:30:13.621Z,72.60
2018-05-01T21:32:41.360Z,71.80
2018-05-01T21:35:09.115Z,70.00
2018-05-01T21:37:36.847Z,69.00
2018-05-01T21:40:05.561Z,64.70
2018-05-01T21:42:33.279Z,64.60
2018-05-01T21:45:01.779Z,65.80
2018-05-01T21:47:30.303Z,66.20
2018-05-01T21:49:58.043Z,66.20
2018-05-01T21:52:25.823Z,65.00
2018-05-01T21:54:53.535Z,64.50
2018-05-01T21:57:22.019Z,64.60
2018-05-01T21:59:50.539Z,64.50
2018-05-01T22:02:18.267Z,64.50
2018-05-01T22:04:46.044Z,64.70
2018-05-01T22:07:13.760Z,64.40
2018-05-01T22:09:41.488Z,65.00
2018-05-01T22:12:09.246Z,66.00
2018-05-01T22:14:37.793Z,64.50
2018-05-01T22:17:05.571Z,64.50
2018-05-01T22:19:33.295Z,63.30
2018-05-01T22:22:01.787Z,61.90
2018-05-01T22:24:30.294Z,61.60
2018-05-01T22:26:58.012Z,61.50
2018-05-01T22:29:26.559Z,59.20
2018-05-01T22:31:54.273Z,59.20
2018-05-01T22:34:22.034Z,59.40
2018-05-01T22:36:49.818Z,58.90
2018-05-01T22:39:17.547Z,58.90
2018-05-01T22:41:45.338Z,59.20
2018-05-01T22:44:13.057Z,59.30
2018-05-01T22:46:40.786Z,58.80
2018-05-01T22:49:08.552Z,57.50
2018-05-01T22:51:36.292Z,57.40
2018-05-01T22:54:04.076Z,56.80
2018-05-01T22:56:31.820Z,55.20
2018-05-01T22:58:59.564Z,55.10
2018-05-01T23:01:27.324Z,54.60
2018-05-01T23:03:55.055Z,54.10
2018-05-01T23:06:23.618Z,53.60
2018-05-01T23:08:51.363Z,53.60
2018-05-01T23:11:19.107Z,54.00
2018-05-01T23:13:46.868Z,53.00
2018-05-01T23:16:14.628Z,53.30
2018-05-01T23:18:42.430Z,53.30
2018-05-01T23:21:10.189Z,53.20
2018-05-01T23:23:37.914Z,53.90
2018-05-01T23:26:05.679Z,53.90
2018-05-01T23:28:33.422Z,54.20
2018-05-01T23:31:01.201Z,53.70
2018-05-01T23:33:28.928Z,53.70
2018-05-01T23:35:56.654Z,54.00
2018-05-01T23:38:24.415Z,54.50
2018-05-01T23:40:52.151Z,53.70
2018-05-01T23:43:19.942Z,53.60
2018-05-01T23:45:47.678Z,54.50
2018-05-01T23:48:15.414Z,54.70
2018-05-01T23:50:43.236Z,54.60
2018-05-01T23:53:11.739Z,54.60
2018-05-01T23:55:39.479Z,54.60
2018-05-01T23:58:07.303Z,54.20
